Time;durP1;ratioP1;P1;durP2;ratioP2;P2;SDS_P1;SDS_P2;PMS_P1;PMS_P2;Temp;Humidity;BMP_temperature;BMP_pressure;BME280_temperature;BME280_humidity;BME280_pressure;Samples;Min_cycle;Max_cycle;Signal;HPM_P1;HPM_P2
2023/12/28 00:00:00;;;;;;;21.20;11.27;;;6.60;98.20;;;6.50;62.79;96025.03;5005735;28;20477;-56
2023/12/28 00:02:28;;;;;;;17.73;10.77;;;6.50;98.00;;;6.51;61.73;96025.91;5009361;28;20531;-57
2023/12/28 00:04:55;;;;;;;17.83;10.70;;;6.50;97.70;;;6.47;62.01;96022.59;5009217;28;21016;-57
2023/12/28 00:07:22;;;;;;;17.93;9.03;;;6.50;97.60;;;6.43;62.42;96029.78;5008998;28;20561;-56
2023/12/28 00:09:50;;;;;;;17.50;10.33;;;6.50;97.80;;;6.41;62.08;96029.03;5008385;28;20560;-57
2023/12/28 00:12:17;;;;;;;18.53;10.47;;;6.50;97.60;;;6.37;62.35;96037.97;5008981;28;20454;-56
2023/12/28 00:14:46;;;;;;;17.90;11.20;;;6.40;97.80;;;6.34;62.46;96045.97;5008988;28;20466;-56
2023/12/28 00:17:13;;;;;;;21.80;11.40;;;6.40;98.00;;;6.32;62.16;96042.59;5012702;28;20528;-57
2023/12/28 00:19:41;;;;;;;18.23;10.90;;;6.40;97.90;;;6.28;62.50;96030.63;5008908;28;21083;-56
2023/12/28 00:22:08;;;;;;;19.77;11.10;;;6.40;97.80;;;6.25;62.12;96041.25;5008145;28;21005;-57
2023/12/28 00:24:35;;;;;;;16.20;10.23;;;6.30;97.90;;;6.21;62.20;96034.50;5009129;28;20536;-56
2023/12/28 00:27:03;;;;;;;16.63;10.30;;;6.30;98.00;;;6.18;62.91;96032.03;5008880;28;20497;-56
2023/12/28 00:29:30;;;;;;;20.10;10.40;;;6.20;98.20;;;6.17;62.95;96048.66;5008544;28;20531;-57
2023/12/28 00:31:59;;;;;;;16.27;10.37;;;6.20;98.40;;;6.14;62.93;96043.63;5008831;28;20458;-57
2023/12/28 00:34:26;;;;;;;14.47;9.83;;;6.20;98.50;;;6.10;62.80;96041.16;5008961;28;20820;-57
2023/12/28 00:36:54;;;;;;;19.27;10.50;;;6.20;98.30;;;6.07;62.86;96049.16;5008848;28;20454;-56
2023/12/28 00:39:21;;;;;;;20.77;11.60;;;6.10;98.50;;;6.02;62.84;96048.56;5009114;28;20457;-56
2023/12/28 00:41:48;;;;;;;26.20;12.50;;;6.10;98.50;;;6.00;63.30;96055.63;5008746;28;20593;-56
2023/12/28 00:44:16;;;;;;;23.60;11.90;;;6.10;98.80;;;5.97;63.27;96053.19;5008431;28;20462;-58
2023/12/28 00:46:43;;;;;;;27.93;11.57;;;6.10;98.50;;;5.96;62.21;96061.91;5008696;28;20548;-57
2023/12/28 00:49:12;;;;;;;24.07;12.00;;;6.00;98.10;;;5.95;62.71;96068.06;5008723;28;20458;-56
2023/12/28 00:51:40;;;;;;;20.80;11.83;;;6.00;98.30;;;5.92;62.73;96056.00;5008283;28;20465;-56
2023/12/28 00:54:07;;;;;;;19.43;11.70;;;6.00;98.50;;;5.92;62.63;96057.78;5008670;28;20519;-56
2023/12/28 00:56:34;;;;;;;20.03;12.17;;;6.00;98.30;;;5.88;62.74;96064.09;5008696;28;20449;-56
2023/12/28 00:59:02;;;;;;;23.33;11.03;;;5.90;98.40;;;5.86;62.86;96066.78;5008845;28;20477;-56
2023/12/28 01:01:30;;;;;;;20.97;11.00;;;5.90;98.40;;;5.83;63.29;96066.94;5008022;28;20559;-56
2023/12/28 01:03:57;;;;;;;19.00;11.37;;;5.90;98.60;;;5.81;62.96;96073.16;5004425;28;20540;-55
2023/12/28 01:06:28;;;;;;;17.70;10.37;;;5.90;98.50;;;5.79;63.12;96067.19;5008363;28;20480;-57
2023/12/28 01:08:56;;;;;;;18.17;10.27;;;5.90;98.40;;;5.78;62.77;96073.31;5008098;28;20504;-56
2023/12/28 01:11:25;;;;;;;19.00;10.97;;;5.80;98.40;;;5.76;63.13;96073.41;5008195;28;20560;-57
2023/12/28 01:13:53;;;;;;;23.53;11.60;;;5.80;98.40;;;5.73;62.86;96071.81;5008267;28;20461;-56
2023/12/28 01:16:20;;;;;;;23.50;10.30;;;5.80;98.80;;;5.71;63.63;96081.47;5008480;28;20473;-56
2023/12/28 01:18:48;;;;;;;20.20;11.70;;;5.80;99.10;;;5.68;63.02;96070.38;5008631;28;20835;-56
2023/12/28 01:21:15;;;;;;;16.93;10.43;;;5.80;98.80;;;5.66;63.30;96069.59;5010720;28;20858;-59
2023/12/28 01:23:45;;;;;;;22.83;12.20;;;5.70;98.70;;;5.63;62.94;96060.16;5011404;28;20814;-56
2023/12/28 01:26:14;;;;;;;22.97;10.50;;;5.70;98.70;;;5.62;62.95;96066.28;5012105;28;20473;-55
2023/12/28 01:28:42;;;;;;;19.27;10.70;;;5.70;98.80;;;5.59;63.48;96068.22;5011813;28;20966;-55
2023/12/28 01:31:09;;;;;;;22.33;11.40;;;5.70;98.90;;;5.56;63.61;96070.09;5011848;28;20976;-57
2023/12/28 01:33:36;;;;;;;20.83;11.70;;;5.60;98.90;;;5.55;63.28;96067.56;5011865;28;20969;-56
2023/12/28 01:36:04;;;;;;;16.67;10.83;;;5.60;99.10;;;5.54;63.77;96068.47;5011420;28;20485;-56
2023/12/28 01:38:31;;;;;;;18.70;11.30;;;5.60;99.10;;;5.51;63.31;96069.47;5011858;28;20453;-57
2023/12/28 01:41:00;;;;;;;16.47;11.23;;;5.60;99.10;;;5.51;63.63;96066.00;5011508;28;20470;-56
2023/12/28 01:43:27;;;;;;;23.40;11.50;;;5.60;99.10;;;5.49;62.92;96062.66;5007383;28;20448;-57
2023/12/28 01:45:54;;;;;;;23.83;12.90;;;5.60;98.80;;;5.47;63.81;96059.25;5011226;28;21048;-55
2023/12/28 01:48:22;;;;;;;21.43;13.40;;;5.50;99.20;;;5.44;63.52;96062.03;5011548;28;21076;-57
2023/12/28 01:50:49;;;;;;;27.33;12.50;;;5.50;99.10;;;5.41;63.69;96054.34;5011421;28;20496;-58
2023/12/28 01:53:16;;;;;;;21.37;13.17;;;5.50;99.10;;;5.38;63.41;96061.44;5011339;28;20457;-58
2023/12/28 01:55:43;;;;;;;25.87;13.83;;;5.50;99.00;;;5.37;64.38;96059.72;5011207;28;20478;-56
2023/12/28 01:58:12;;;;;;;17.80;11.70;;;5.50;99.70;;;5.37;63.58;96062.34;5011263;28;20874;-57
2023/12/28 02:00:39;;;;;;;22.43;12.60;;;5.50;99.20;;;5.36;64.45;96065.88;5011040;28;20572;-56
2023/12/28 02:03:06;;;;;;;24.80;13.00;;;5.50;99.90;;;5.33;64.11;96063.44;5011446;28;20497;-55
2023/12/28 02:05:34;;;;;;;21.23;12.03;;;5.40;99.50;;;5.33;63.50;96060.84;5010983;28;20470;-56
2023/12/28 02:08:01;;;;;;;22.43;12.67;;;5.40;99.10;;;5.32;64.12;96056.53;5011529;28;20454;-56
2023/12/28 02:10:29;;;;;;;30.63;14.53;;;5.40;99.70;;;5.28;64.13;96054.16;5011131;28;20561;-57
2023/12/28 02:12:56;;;;;;;23.40;13.13;;;5.40;99.70;;;5.29;64.50;96067.13;5009869;28;20453;-57
2023/12/28 02:15:25;;;;;;;25.67;12.70;;;5.40;99.80;;;5.27;64.29;96062.91;5011113;28;20465;-56
2023/12/28 02:17:59;;;;;;;29.67;14.57;;;5.40;99.90;;;5.27;63.36;96060.31;5006681;28;20453;-56
2023/12/28 02:20:26;;;;;;;34.03;15.53;;;5.40;99.40;;;5.24;64.21;96063.91;5011092;28;20544;-56
2023/12/28 02:22:54;;;;;;;27.33;15.50;;;5.30;99.90;;;5.19;64.70;96058.91;5008689;28;20485;-55
2023/12/28 02:25:22;;;;;;;31.80;16.10;;;5.30;99.90;;;5.16;63.87;96066.06;5010853;28;20483;-57
2023/12/28 02:27:50;;;;;;;28.30;14.70;;;5.30;99.80;;;5.12;63.94;96064.53;5010585;28;20458;-57
2023/12/28 02:30:18;;;;;;;24.07;13.70;;;5.20;99.70;;;5.08;64.60;96063.84;5010657;28;21013;-56
2023/12/28 02:32:58;;;;;;;30.00;13.73;;;5.20;99.90;;;5.06;64.67;96064.84;5008322;28;20448;-57
2023/12/28 02:35:30;;;;;;;22.53;12.40;;;5.10;99.90;;;4.98;63.94;96063.44;5007519;28;20477;-57
2023/12/28 02:38:00;;;;;;;29.60;13.00;;;5.10;99.60;;;4.95;64.03;96060.97;5010566;28;20958;-57
2023/12/28 02:40:28;;;;;;;19.87;11.70;;;5.10;99.60;;;4.92;64.10;96062.91;5010572;28;20488;-58
2023/12/28 02:42:56;;;;;;;22.73;13.57;;;5.00;99.70;;;4.91;63.79;96061.22;5010845;28;20494;-56
2023/12/28 02:45:23;;;;;;;23.40;11.87;;;5.00;99.70;;;4.90;64.16;96057.78;5007617;28;20682;-56
2023/12/28 02:47:50;;;;;;;22.23;12.13;;;5.00;99.90;;;4.90;64.67;96052.56;5010428;28;20461;-56
2023/12/28 02:50:18;;;;;;;32.50;13.43;;;5.00;99.90;;;4.88;64.64;96058.75;5010302;28;20485;-55
2023/12/28 02:52:45;;;;;;;23.87;11.73;;;5.00;99.90;;;4.88;64.29;96057.00;5010031;28;20968;-56
2023/12/28 02:55:13;;;;;;;22.50;13.70;;;5.00;99.90;;;4.84;64.40;96058.06;5010442;28;20465;-57
2023/12/28 02:57:41;;;;;;;32.20;14.23;;;4.90;99.90;;;4.79;64.03;96054.84;5010111;28;20445;-57
2023/12/28 03:00:10;;;;;;;19.50;12.30;;;4.90;99.70;;;4.77;64.44;96051.47;5010026;28;20543;-58
2023/12/28 03:02:38;;;;;;;24.47;14.07;;;4.90;99.90;;;4.75;64.14;96051.53;5010050;28;20493;-58
2023/12/28 03:05:06;;;;;;;26.23;12.40;;;4.90;99.70;;;4.70;64.26;96042.28;5009749;28;20469;-56
2023/12/28 03:07:34;;;;;;;31.77;13.37;;;4.80;99.90;;;4.67;64.83;96038.88;5009836;28;20533;-56
2023/12/28 03:10:02;;;;;;;25.90;12.93;;;4.80;99.90;;;4.64;64.51;96031.22;5010027;28;20484;-57
2023/12/28 03:12:29;;;;;;;17.50;11.37;;;4.80;99.90;;;4.61;64.78;96033.97;5006182;28;20806;-55
2023/12/28 03:14:58;;;;;;;29.43;13.50;;;4.80;99.90;;;4.60;64.99;96037.50;5010104;28;20477;-56
2023/12/28 03:17:25;;;;;;;23.50;13.00;;;4.70;99.90;;;4.59;64.57;96032.38;5009738;28;20462;-57
2023/12/28 03:19:53;;;;;;;29.77;13.40;;;4.70;99.90;;;4.56;64.52;96038.56;5010098;28;20469;-56
2023/12/28 03:22:20;;;;;;;23.80;13.20;;;4.70;99.90;;;4.56;65.15;96035.97;5009638;28;20562;-57
2023/12/28 03:24:48;;;;;;;22.53;13.23;;;4.70;99.90;;;4.55;64.95;96039.47;5009733;28;20993;-57
2023/12/28 03:27:15;;;;;;;27.90;12.83;;;4.70;99.90;;;4.53;64.99;96041.31;5009463;28;20466;-57
2023/12/28 03:29:43;;;;;;;28.67;13.70;;;4.70;99.90;;;4.51;64.92;96034.47;5009747;28;20470;-56
2023/12/28 03:32:12;;;;;;;24.70;13.93;;;4.60;99.90;;;4.49;64.44;96042.38;5009476;28;20450;-55
2023/12/28 03:34:39;;;;;;;23.97;13.00;;;4.60;99.90;;;4.48;64.39;96058.94;5010378;28;20560;-57
2023/12/28 03:37:06;;;;;;;23.67;14.20;;;4.60;99.90;;;4.44;64.43;96054.78;5009873;28;20450;-56
2023/12/28 03:39:34;;;;;;;20.10;13.20;;;4.60;99.90;;;4.43;64.80;96053.09;5009884;28;20474;-56
2023/12/28 03:42:01;;;;;;;29.93;13.40;;;4.50;99.90;;;4.41;64.58;96049.72;5009283;28;20492;-57
2023/12/28 03:44:28;;;;;;;27.97;12.43;;;4.50;99.90;;;4.38;64.73;96047.25;5009114;28;20453;-57
2023/12/28 03:46:56;;;;;;;22.33;13.77;;;4.50;99.90;;;4.37;65.21;96061.19;5008950;28;20837;-57
2023/12/28 03:49:24;;;;;;;26.53;14.33;;;4.50;99.90;;;4.34;64.80;96062.19;5009065;28;20531;-55
2023/12/28 03:51:52;;;;;;;22.07;13.90;;;4.50;99.90;;;4.33;64.74;96065.72;5008932;28;20497;-57
2023/12/28 03:54:19;;;;;;;21.13;14.43;;;4.50;99.90;;;4.31;65.16;96067.56;5009234;28;20512;-57
2023/12/28 03:56:47;;;;;;;35.93;15.63;;;4.50;99.90;;;4.29;64.85;96065.03;5009331;28;20449;-55
2023/12/28 03:59:15;;;;;;;35.70;17.67;;;4.40;99.90;;;4.27;65.15;96066.84;5009615;28;20449;-58
2023/12/28 04:01:43;;;;;;;40.23;15.30;;;4.40;99.90;;;4.26;65.30;96070.38;5009079;28;20464;-57
2023/12/28 04:04:10;;;;;;;32.33;15.43;;;4.40;99.90;;;4.26;64.89;96067.75;5009073;28;20442;-57
2023/12/28 04:06:39;;;;;;;18.60;13.43;;;4.40;99.90;;;4.26;64.98;96072.09;5009063;28;20512;-57
2023/12/28 04:09:06;;;;;;;23.27;14.07;;;4.40;99.90;;;4.24;65.73;96063.53;5009143;28;20507;-55
2023/12/28 04:11:33;;;;;;;27.30;15.40;;;4.40;99.90;;;4.23;65.54;96075.72;5009025;28;20481;-56
2023/12/28 04:14:01;;;;;;;27.93;15.10;;;4.40;99.90;;;4.23;65.55;96067.03;5007262;28;20442;-56
2023/12/28 04:16:28;;;;;;;26.00;15.00;;;4.40;99.90;;;4.23;65.78;96075.72;5008754;28;20551;-55
2023/12/28 04:18:55;;;;;;;25.90;14.67;;;4.40;99.90;;;4.23;65.98;96078.31;5009070;28;20458;-58
2023/12/28 04:21:23;;;;;;;22.37;13.27;;;4.40;99.90;;;4.23;65.94;96074.84;5008841;28;20608;-58
2023/12/28 04:23:51;;;;;;;24.10;13.73;;;4.40;99.90;;;4.23;65.66;96073.13;5008831;28;20912;-57
2023/12/28 04:26:20;;;;;;;23.80;14.23;;;4.40;99.90;;;4.24;65.68;96068.75;5008954;28;20470;-57
2023/12/28 04:28:47;;;;;;;24.63;14.70;;;4.40;99.90;;;4.23;65.57;96073.13;5008653;28;20596;-57
2023/12/28 04:31:14;;;;;;;28.07;15.20;;;4.40;99.90;;;4.23;65.86;96073.13;5008798;28;20485;-56
2023/12/28 04:33:42;;;;;;;24.40;13.87;;;4.40;99.90;;;4.22;65.84;96079.22;5007493;28;20438;-57
2023/12/28 04:36:09;;;;;;;19.90;13.30;;;4.30;99.90;;;4.21;66.26;96061.06;5008745;28;20634;-56
2023/12/28 04:38:38;;;;;;;23.90;14.27;;;4.30;99.90;;;4.22;65.85;96065.38;5008567;28;20493;-57
2023/12/28 04:41:07;;;;;;;22.87;13.87;;;4.40;99.90;;;4.22;65.79;96070.59;5005103;28;20462;-56
2023/12/28 04:43:34;;;;;;;24.67;14.83;;;4.40;99.90;;;4.23;65.93;96070.50;5008501;28;20551;-58
2023/12/28 04:46:04;;;;;;;24.77;15.00;;;4.40;99.90;;;4.24;65.82;96061.75;5008038;28;20466;-56
2023/12/28 04:48:32;;;;;;;27.63;15.40;;;4.40;99.90;;;4.24;65.57;96066.13;5008600;28;20473;-57
2023/12/28 04:50:59;;;;;;;23.40;15.60;;;4.40;99.90;;;4.24;65.91;96066.97;5008395;28;20481;-58
2023/12/28 04:53:26;;;;;;;23.53;14.90;;;4.40;99.90;;;4.23;65.99;96067.91;5008525;28;20454;-56
2023/12/28 04:55:54;;;;;;;31.50;16.60;;;4.40;99.90;;;4.22;65.89;96063.59;5010995;28;20829;-58
2023/12/28 04:58:22;;;;;;;27.27;15.90;;;4.40;99.90;;;4.20;65.83;96065.44;5012146;28;20446;-57
2023/12/28 05:00:50;;;;;;;28.70;15.03;;;4.30;99.90;;;4.18;66.24;96063.81;5012290;28;21078;-55
2023/12/28 05:03:17;;;;;;;34.17;14.03;;;4.30;99.90;;;4.13;66.11;96064.03;5010980;28;20884;-56
2023/12/28 05:05:44;;;;;;;26.70;13.13;;;4.30;99.90;;;4.09;66.33;96065.06;5008287;28;20523;-56
2023/12/28 05:08:12;;;;;;;25.53;14.60;;;4.30;99.90;;;4.08;66.81;96073.81;5012357;28;20445;-57
2023/12/28 05:10:39;;;;;;;20.43;14.23;;;4.20;99.90;;;4.04;66.16;96070.50;5012287;28;20478;-56
2023/12/28 05:13:06;;;;;;;28.37;14.47;;;4.20;99.90;;;4.04;66.28;96069.66;5012616;28;20461;-57
2023/12/28 05:15:35;;;;;;;21.23;13.43;;;4.20;99.90;;;4.03;66.40;96067.97;5012584;28;20469;-58
2023/12/28 05:18:02;;;;;;;22.40;14.60;;;4.20;99.90;;;4.03;66.79;96065.34;5012500;28;20453;-57
2023/12/28 05:20:29;;;;;;;22.17;14.80;;;4.20;99.90;;;4.05;66.60;96066.16;5011436;28;20547;-55
2023/12/28 05:22:57;;;;;;;35.33;15.37;;;4.20;99.90;;;4.06;66.60;96075.63;5009219;28;21001;-56
2023/12/28 05:25:24;;;;;;;27.03;14.87;;;4.20;99.90;;;4.07;66.66;96074.72;5008844;28;20473;-56
2023/12/28 05:27:51;;;;;;;28.07;14.60;;;4.20;99.90;;;4.07;66.29;96069.53;5011661;28;20453;-57
2023/12/28 05:30:19;;;;;;;20.50;13.60;;;4.20;99.90;;;4.07;66.46;96070.34;5011687;28;20489;-56
2023/12/28 05:32:48;;;;;;;21.83;13.67;;;4.20;99.90;;;4.07;66.50;96070.34;5010854;28;20622;-57
2023/12/28 05:35:16;;;;;;;23.90;13.50;;;4.20;99.90;;;4.07;66.08;96075.56;5011885;28;20472;-57
2023/12/28 05:37:43;;;;;;;28.73;14.00;;;4.20;99.90;;;4.07;66.23;96074.72;5011759;28;20473;-57
2023/12/28 05:40:12;;;;;;;23.00;14.03;;;4.20;99.90;;;4.04;66.01;96080.91;5011486;28;20524;-57
2023/12/28 05:42:39;;;;;;;19.70;13.53;;;4.20;99.90;;;4.04;65.93;96080.06;5012237;28;20496;-55
2023/12/28 05:45:07;;;;;;;20.00;14.20;;;4.20;99.90;;;4.03;66.26;96091.41;5011705;28;20548;-57
2023/12/28 05:47:35;;;;;;;26.67;15.90;;;4.20;99.90;;;4.04;66.03;96087.88;5011824;28;20450;-55
2023/12/28 05:50:05;;;;;;;32.10;16.60;;;4.20;99.90;;;4.04;66.20;96086.13;5011216;28;20485;-59
2023/12/28 05:52:33;;;;;;;20.00;14.27;;;4.20;99.90;;;4.03;66.21;96087.06;5011393;28;20786;-57
2023/12/28 05:55:00;;;;;;;35.90;19.03;;;4.20;99.90;;;4.03;66.11;96094.00;5011189;28;20478;-57
2023/12/28 05:57:29;;;;;;;30.90;17.50;;;4.20;99.90;;;4.01;65.74;96088.84;5011821;28;20454;-58
2023/12/28 05:59:57;;;;;;;32.23;17.83;;;4.10;99.90;;;4.00;66.09;96094.13;5008371;28;20475;-57
2023/12/28 06:02:24;;;;;;;38.47;19.03;;;4.20;99.90;;;4.00;66.31;96094.13;5010578;28;20544;-56
2023/12/28 06:04:51;;;;;;;34.10;18.60;;;4.10;99.90;;;4.00;65.82;96099.34;5010253;28;20470;-57
2023/12/28 06:07:20;;;;;;;33.23;17.90;;;4.10;99.90;;;3.99;65.84;96097.69;5010019;28;20458;-55
2023/12/28 06:09:48;;;;;;;27.67;17.70;;;4.10;99.90;;;4.00;65.68;96099.34;5010936;28;20486;-57
2023/12/28 06:12:15;;;;;;;35.90;18.00;;;4.10;99.90;;;4.03;65.67;96101.81;5012078;28;20549;-57
2023/12/28 06:14:43;;;;;;;34.40;19.20;;;4.10;99.90;;;4.03;65.75;96107.00;5011622;28;20548;-57
2023/12/28 06:17:10;;;;;;;30.23;18.53;;;4.20;99.90;;;4.07;65.91;96105.97;5011489;28;20808;-58
2023/12/28 06:19:37;;;;;;;39.83;21.20;;;4.20;99.90;;;4.22;65.76;96099.22;5006841;28;20482;-56
2023/12/28 06:22:05;;;;;;;31.33;19.73;;;4.30;99.90;;;4.55;65.77;96102.00;5011587;28;20458;-60
2023/12/28 06:24:34;;;;;;;33.17;19.33;;;4.60;99.90;;;4.97;64.70;96094.81;5011019;28;20500;-58
2023/12/28 06:27:01;;;;;;;38.33;21.27;;;5.00;99.90;;;5.47;63.77;96096.66;5011214;28;20521;-57
2023/12/28 06:29:29;;;;;;;37.20;20.13;;;5.50;99.90;;;5.97;62.70;96091.53;5011417;28;20557;-58
2023/12/28 06:31:56;;;;;;;36.03;20.33;;;6.00;99.80;;;6.47;61.08;96103.63;5010148;28;20535;-57
2023/12/28 06:34:23;;;;;;;36.93;22.17;;;6.60;98.80;;;6.96;60.53;96103.50;5010345;28;20496;-58
2023/12/28 06:36:50;;;;;;;38.97;22.87;;;7.10;98.00;;;7.43;59.32;96096.44;5010710;28;20465;-57
2023/12/28 06:39:18;;;;;;;37.23;20.07;;;7.60;97.10;;;7.94;58.14;96109.13;5010551;28;20461;-56
2023/12/28 06:41:49;;;;;;;39.60;22.43;;;8.10;96.10;;;8.47;57.98;96106.78;5011048;28;20650;-57
2023/12/28 06:44:17;;;;;;;36.60;22.73;;;8.70;95.40;;;8.95;56.61;96094.13;5006126;28;20470;-58
2023/12/28 06:46:44;;;;;;;40.17;23.27;;;9.20;94.20;;;9.45;55.54;96098.75;5010311;28;20454;-57
2023/12/28 06:49:11;;;;;;;36.40;22.20;;;9.70;93.30;;;9.87;54.74;96112.56;5010311;28;20454;-58
2023/12/28 06:51:38;;;;;;;41.77;23.40;;;10.20;91.90;;;10.25;53.71;96110.88;5010624;28;20465;-57
2023/12/28 06:54:06;;;;;;;49.50;26.50;;;10.50;90.70;;;10.56;52.14;96109.56;5010905;28;20916;-58
2023/12/28 06:56:33;;;;;;;35.00;22.93;;;10.80;88.50;;;10.81;51.97;96116.53;5010470;28;20847;-59
2023/12/28 06:59:02;;;;;;;47.37;24.50;;;11.20;87.80;;;11.14;51.68;96112.44;5005717;28;20478;-58
2023/12/28 07:01:30;;;;;;;45.20;21.60;;;11.40;86.40;;;11.53;51.30;96112.22;5009487;28;20493;-57
2023/12/28 07:03:59;;;;;;;38.47;21.17;;;11.80;85.90;;;11.92;50.63;96108.38;5009642;28;21028;-58
2023/12/28 07:06:26;;;;;;;88.67;43.50;;;12.10;84.80;;;12.35;50.61;96117.44;5010779;28;20527;-59
2023/12/28 07:08:53;;;;;;;41.83;26.70;;;12.50;84.10;;;12.77;49.27;96106.25;5010909;28;20905;-57
2023/12/28 07:11:21;;;;;;;44.40;28.07;;;12.90;82.40;;;13.15;48.24;96108.44;5009046;28;20470;-57
2023/12/28 07:13:48;;;;;;;51.23;28.37;;;13.30;80.40;;;13.55;47.26;96114.91;5010253;28;20457;-58
2023/12/28 07:16:17;;;;;;;50.50;29.10;;;13.80;78.40;;;13.95;46.93;96104.44;5010653;28;20482;-57
2023/12/28 07:18:44;;;;;;;39.33;27.20;;;14.20;76.80;;;14.39;46.20;96098.13;5009888;28;20453;-57
2023/12/28 07:21:11;;;;;;;52.97;29.50;;;14.70;74.60;;;14.84;45.26;96106.53;5009968;28;20469;-56
2023/12/28 07:23:38;;;;;;;47.70;28.03;;;15.10;72.70;;;15.22;44.20;96104.91;5010256;28;20511;-55
2023/12/28 07:26:06;;;;;;;47.80;28.87;;;15.60;70.80;;;15.56;43.51;96111.66;5010276;28;20557;-56
2023/12/28 07:28:33;;;;;;;39.83;23.40;;;16.00;69.00;;;15.86;42.93;96109.81;5009894;28;20450;-56
2023/12/28 07:31:01;;;;;;;38.40;24.70;;;16.30;67.50;;;16.13;42.28;96109.09;5009279;28;20478;-58
2023/12/28 07:33:29;;;;;;;38.77;22.60;;;16.60;66.00;;;16.39;41.80;96100.47;5009529;28;20874;-57
2023/12/28 07:35:59;;;;;;;36.43;23.37;;;16.90;63.90;;;16.65;41.21;96113.91;5009827;28;20965;-57
2023/12/28 07:38:26;;;;;;;42.90;24.83;;;17.10;63.60;;;16.88;40.80;96110.91;5010358;28;20547;-57
2023/12/28 07:40:54;;;;;;;36.80;22.77;;;17.40;62.30;;;17.11;39.39;96122.81;5004817;28;21035;-56
2023/12/28 07:43:21;;;;;;;37.90;22.17;;;17.70;59.20;;;17.32;39.45;96108.38;5009512;28;20543;-57
2023/12/28 07:45:48;;;;;;;36.10;22.07;;;17.80;59.70;;;17.52;39.37;96101.94;5009230;28;20469;-55
2023/12/28 07:48:15;;;;;;;38.43;22.93;;;18.00;58.70;;;17.74;39.16;96116.59;5009522;28;20512;-57
2023/12/28 07:50:44;;;;;;;157.50;56.97;;;18.10;58.40;;;17.92;36.79;96105.97;5009507;28;20517;-59
2023/12/28 07:53:11;;;;;;;434.07;151.10;;;18.20;55.90;;;18.06;38.10;96106.38;5007972;28;20457;-57
2023/12/28 07:55:38;;;;;;;399.73;133.50;;;18.30;57.10;;;18.18;37.99;96115.78;5009424;28;20473;-58
2023/12/28 07:58:06;;;;;;;575.77;218.47;;;18.30;56.90;;;18.28;37.69;96111.19;5009740;28;20454;-57
2023/12/28 08:00:33;;;;;;;528.90;193.07;;;18.30;56.60;;;18.37;37.37;96111.25;5009676;28;20477;-57
2023/12/28 08:03:00;;;;;;;479.27;163.27;;;18.30;56.40;;;18.44;36.88;96104.31;5007985;28;20487;-56
2023/12/28 08:05:28;;;;;;;527.23;195.03;;;18.30;56.30;;;18.56;36.83;96108.38;5008881;28;20517;-57
2023/12/28 08:07:56;;;;;;;364.93;117.33;;;18.40;55.90;;;18.72;36.91;96101.44;5006611;28;20500;-57
2023/12/28 08:10:24;;;;;;;92.03;36.00;;;18.50;55.90;;;18.92;36.98;96102.03;5009715;28;20473;-57
2023/12/28 08:12:51;;;;;;;94.17;40.10;;;18.60;55.30;;;19.09;36.72;96105.59;5009272;28;20454;-59
2023/12/28 08:15:19;;;;;;;172.73;65.47;;;18.80;55.40;;;19.36;36.64;96101.81;5006181;28;20997;-59
2023/12/28 08:17:46;;;;;;;85.93;40.73;;;19.00;55.50;;;19.66;35.75;96099.53;5009117;28;20540;-56
2023/12/28 08:20:14;;;;;;;46.50;27.03;;;19.30;54.80;;;19.91;35.42;96100.41;5005697;28;20524;-58
2023/12/28 08:22:41;;;;;;;41.90;26.17;;;19.50;54.20;;;20.11;35.52;96097.34;5002691;28;20519;-57
2023/12/28 08:25:10;;;;;;;44.43;23.80;;;19.70;53.70;;;20.28;35.01;96100.84;5009168;28;20627;-57
2023/12/28 08:27:37;;;;;;;40.23;23.43;;;19.90;53.40;;;20.44;34.61;96098.13;5005719;28;20447;-57
2023/12/28 08:30:07;;;;;;;47.07;24.60;;;20.00;52.50;;;20.54;34.31;96090.78;5010004;28;20462;-57
2023/12/28 08:32:34;;;;;;;42.30;23.87;;;20.20;52.40;;;20.64;34.09;96095.09;5012057;28;20909;-56
2023/12/28 08:35:02;;;;;;;47.93;26.20;;;20.30;51.90;;;20.71;33.46;96093.41;5012864;28;20513;-57
2023/12/28 08:37:30;;;;;;;43.77;25.33;;;20.30;50.80;;;20.74;33.60;96090.38;5013189;28;20453;-57
2023/12/28 08:39:57;;;;;;;44.97;25.97;;;20.40;50.70;;;20.78;33.60;96089.88;5013540;28;20473;-57
2023/12/28 08:42:26;;;;;;;38.70;24.83;;;20.40;50.80;;;20.78;33.42;96081.84;5011229;28;20860;-58
2023/12/28 08:44:53;;;;;;;41.90;24.63;;;20.40;51.00;;;20.75;33.07;96089.38;5013489;28;21063;-56
2023/12/28 08:47:22;;;;;;;42.93;27.30;;;20.40;50.00;;;20.75;33.34;96086.72;5013001;28;20457;-58
2023/12/28 08:49:49;;;;;;;37.80;25.47;;;20.40;50.60;;;20.77;33.22;96082.00;5012772;28;20476;-57
2023/12/28 08:52:18;;;;;;;42.77;26.57;;;20.40;50.40;;;20.84;33.36;96072.31;5013068;28;20441;-56
2023/12/28 08:54:45;;;;;;;40.93;26.20;;;20.40;50.40;;;20.90;32.89;96076.94;5011420;28;20483;-59
2023/12/28 08:57:13;;;;;;;45.73;24.87;;;20.50;50.10;;;20.94;32.81;96062.22;5008045;28;20549;-57
2023/12/28 08:59:41;;;;;;;41.40;27.70;;;20.50;49.50;;;20.88;31.41;96065.59;5005278;28;20485;-60
2023/12/28 09:02:09;;;;;;;50.43;28.37;;;20.50;48.30;;;20.80;32.75;96076.31;5009150;28;20451;-57
2023/12/28 09:04:36;;;;;;;44.53;26.27;;;20.40;49.50;;;20.80;32.79;96070.16;5009136;28;20578;-57
2023/12/28 09:07:04;;;;;;;47.27;27.00;;;20.40;49.50;;;20.69;31.87;96058.81;5001666;28;20461;-57
2023/12/28 09:09:31;;;;;;;48.60;27.93;;;20.30;48.10;;;20.61;32.17;96061.50;5004539;28;21009;-57
2023/12/28 09:11:58;;;;;;;47.53;27.33;;;20.20;49.30;;;20.54;32.89;96052.50;5011985;28;20460;-57
2023/12/28 09:14:26;;;;;;;43.10;26.67;;;20.10;49.20;;;20.55;32.77;96054.16;5011997;28;20453;-60
2023/12/28 09:16:54;;;;;;;49.27;27.57;;;20.00;49.00;;;20.54;32.90;96039.13;5012427;28;20523;-57
2023/12/28 09:19:22;;;;;;;53.63;30.40;;;20.00;49.10;;;20.64;32.91;96045.13;5011356;28;20450;-57
2023/12/28 09:21:50;;;;;;;47.83;29.33;;;20.20;49.30;;;20.75;31.26;96047.44;5011623;28;20446;-57
2023/12/28 09:24:18;;;;;;;45.07;30.20;;;20.20;47.90;;;20.74;32.29;96037.75;5011225;28;20477;-57
2023/12/28 09:26:45;;;;;;;44.53;28.73;;;20.20;48.90;;;20.83;32.86;96032.34;5010308;28;20454;-56
2023/12/28 09:29:13;;;;;;;52.60;28.83;;;20.30;49.40;;;21.03;31.92;96032.75;5010933;28;20825;-56
2023/12/28 09:31:41;;;;;;;49.20;29.27;;;20.40;48.30;;;21.19;32.32;96026.47;5011127;28;20456;-55
2023/12/28 09:34:10;;;;;;;39.13;27.70;;;20.60;49.20;;;21.37;32.35;96018.97;5010652;28;20453;-56
2023/12/28 09:36:37;;;;;;;54.97;30.03;;;20.80;49.00;;;21.57;32.21;96015.84;5006872;28;20448;-58
2023/12/28 09:39:07;;;;;;;53.70;28.60;;;21.00;48.60;;;21.66;31.48;96007.56;5011341;28;20453;-56
2023/12/28 09:41:35;;;;;;;49.67;30.93;;;21.10;47.50;;;21.74;31.32;96005.81;5011148;28;20468;-58
2023/12/28 09:44:08;;;;;;;59.00;30.43;;;21.20;47.80;;;21.81;30.84;96006.75;5010384;28;20500;-57
2023/12/28 09:46:35;;;;;;;53.70;29.53;;;21.20;47.30;;;21.88;31.85;96002.34;5011024;28;20457;-57
2023/12/28 09:49:03;;;;;;;52.37;30.60;;;21.30;48.00;;;22.06;31.84;96003.81;5009978;28;20453;-58
2023/12/28 09:51:32;;;;;;;53.83;30.63;;;21.40;48.10;;;22.34;31.34;95996.84;5010695;28;20583;-59
2023/12/28 09:53:59;;;;;;;47.63;27.67;;;21.60;47.80;;;22.68;30.81;95989.22;5010198;28;20450;-59
2023/12/28 09:56:27;;;;;;;52.73;26.20;;;22.00;47.70;;;22.95;29.63;95984.16;5009286;28;20460;-59
2023/12/28 09:58:55;;;;;;;44.40;24.73;;;22.20;45.40;;;22.90;30.78;95982.88;5009213;28;20803;-58
2023/12/28 10:01:22;;;;;;;45.37;25.00;;;22.30;46.70;;;22.98;29.65;95975.75;5004422;28;21084;-56
2023/12/28 10:03:50;;;;;;;40.33;25.33;;;22.40;46.00;;;22.93;31.08;95970.94;5004318;28;20446;-58
2023/12/28 10:06:17;;;;;;;43.70;23.27;;;22.30;46.90;;;22.99;30.86;95964.81;5005217;28;20533;-57
2023/12/28 10:08:49;;;;;;;34.80;23.30;;;22.40;47.10;;;23.16;29.65;95960.06;5009930;28;20548;-57
2023/12/28 10:11:17;;;;;;;38.97;24.00;;;22.50;45.70;;;23.29;29.89;95955.84;5010791;28;20840;-58
2023/12/28 10:13:44;;;;;;;39.17;23.37;;;22.60;45.70;;;23.43;29.93;95954.94;5008916;28;20892;-57
2023/12/28 10:16:12;;;;;;;41.70;23.27;;;22.80;46.10;;;23.55;29.80;95952.56;5009937;28;20473;-58